sensor_id;sensor_type;location;lat;lon;timestamp;pressure;altitude;pressure_sealevel;temperature;humidity
20987;BME280;10652;50.306;8.570;2022-10-22T00:03:25;97562.75;;;15.41;100.00
20987;BME280;10652;50.306;8.570;2022-10-22T00:07:27;97564.69;;;15.39;100.00
20987;BME280;10652;50.306;8.570;2022-10-22T00:11:30;97571.84;;;15.37;100.00
20987;BME280;10652;50.306;8.570;2022-10-22T00:15:32;97557.06;;;15.34;100.00
20987;BME280;10652;50.306;8.570;2022-10-22T00:19:34;97557.91;;;15.35;100.00
20987;BME280;10652;50.306;8.570;2022-10-22T00:23:39;97546.38;;;15.36;100.00
20987;BME280;10652;50.306;8.570;2022-10-22T00:27:42;97540.16;;;15.37;100.00
20987;BME280;10652;50.306;8.570;2022-10-22T00:31:44;97535.66;;;15.39;100.00
20987;BME280;10652;50.306;8.570;2022-10-22T00:35:50;97531.09;;;15.41;100.00
20987;BME280;10652;50.306;8.570;2022-10-22T00:39:52;97520.38;;;15.44;100.00
20987;BME280;10652;50.306;8.570;2022-10-22T00:44:05;97518.44;;;15.46;100.00
20987;BME280;10652;50.306;8.570;2022-10-22T00:48:14;97523.28;;;15.53;100.00
20987;BME280;10652;50.306;8.570;2022-10-22T00:52:19;97520.19;;;15.60;100.00
20987;BME280;10652;50.306;8.570;2022-10-22T00:56:24;97515.34;;;15.66;100.00
20987;BME280;10652;50.306;8.570;2022-10-22T01:00:26;97521.28;;;15.70;100.00
20987;BME280;10652;50.306;8.570;2022-10-22T01:04:29;97518.31;;;15.74;100.00
20987;BME280;10652;50.306;8.570;2022-10-22T01:08:54;97533.84;;;15.79;100.00
20987;BME280;10652;50.306;8.570;2022-10-22T01:13:13;97523.19;;;15.80;100.00
20987;BME280;10652;50.306;8.570;2022-10-22T01:17:24;97526.56;;;15.82;100.00
20987;BME280;10652;50.306;8.570;2022-10-22T01:21:41;97533.75;;;15.80;100.00
20987;BME280;10652;50.306;8.570;2022-10-22T01:26:07;97545.44;;;15.76;100.00
20987;BME280;10652;50.306;8.570;2022-10-22T01:30:13;97563.28;;;15.73;100.00
20987;BME280;10652;50.306;8.570;2022-10-22T01:34:17;97563.41;;;15.71;100.00
20987;BME280;10652;50.306;8.570;2022-10-22T01:38:21;97574.91;;;15.70;100.00
20987;BME280;10652;50.306;8.570;2022-10-22T01:42:25;97553.97;;;15.67;100.00
20987;BME280;10652;50.306;8.570;2022-10-22T01:46:27;97564.03;;;15.62;100.00
20987;BME280;10652;50.306;8.570;2022-10-22T01:50:40;97564.91;;;15.48;100.00
20987;BME280;10652;50.306;8.570;2022-10-22T01:54:51;97566.75;;;15.34;100.00
20987;BME280;10652;50.306;8.570;2022-10-22T01:59:22;97561.16;;;15.26;100.00
20987;BME280;10652;50.306;8.570;2022-10-22T02:03:34;97561.63;;;15.18;100.00
20987;BME280;10652;50.306;8.570;2022-10-22T02:07:48;97576.81;;;15.14;100.00
20987;BME280;10652;50.306;8.570;2022-10-22T02:11:52;97564.78;;;15.10;100.00
20987;BME280;10652;50.306;8.570;2022-10-22T02:15:56;97570.25;;;15.07;100.00
20987;BME280;10652;50.306;8.570;2022-10-22T02:20:15;97572.34;;;15.02;100.00
20987;BME280;10652;50.306;8.570;2022-10-22T02:24:19;97559.63;;;14.95;100.00
20987;BME280;10652;50.306;8.570;2022-10-22T02:28:36;97543.38;;;14.88;100.00
20987;BME280;10652;50.306;8.570;2022-10-22T02:36:50;97544.53;;;14.84;100.00
20987;BME280;10652;50.306;8.570;2022-10-22T02:40:52;97563.34;;;14.78;100.00
20987;BME280;10652;50.306;8.570;2022-10-22T02:44:54;97575.91;;;14.75;100.00
20987;BME280;10652;50.306;8.570;2022-10-22T02:48:56;97572.78;;;14.68;100.00
20987;BME280;10652;50.306;8.570;2022-10-22T02:52:58;97574.69;;;14.66;100.00
20987;BME280;10652;50.306;8.570;2022-10-22T02:57:01;97590.09;;;14.72;100.00
20987;BME280;10652;50.306;8.570;2022-10-22T03:01:03;97601.88;;;14.81;100.00
20987;BME280;10652;50.306;8.570;2022-10-22T03:05:06;97601.59;;;14.85;100.00
20987;BME280;10652;50.306;8.570;2022-10-22T03:09:09;97596.84;;;14.90;100.00
20987;BME280;10652;50.306;8.570;2022-10-22T03:13:11;97580.94;;;14.92;100.00
20987;BME280;10652;50.306;8.570;2022-10-22T03:17:13;97579.16;;;14.92;100.00
20987;BME280;10652;50.306;8.570;2022-10-22T03:21:34;97581.78;;;14.92;100.00
20987;BME280;10652;50.306;8.570;2022-10-22T03:25:39;97593.38;;;14.90;100.00
20987;BME280;10652;50.306;8.570;2022-10-22T03:29:44;97584.63;;;14.89;100.00
20987;BME280;10652;50.306;8.570;2022-10-22T03:33:47;97595.47;;;14.85;100.00
20987;BME280;10652;50.306;8.570;2022-10-22T03:37:50;97587.84;;;14.80;100.00
20987;BME280;10652;50.306;8.570;2022-10-22T03:41:52;97594.25;;;14.76;100.00
20987;BME280;10652;50.306;8.570;2022-10-22T03:45:54;97595.19;;;14.75;100.00
20987;BME280;10652;50.306;8.570;2022-10-22T03:49:56;97598.75;;;14.74;100.00
20987;BME280;10652;50.306;8.570;2022-10-22T03:53:58;97602.25;;;14.75;100.00
20987;BME280;10652;50.306;8.570;2022-10-22T03:58:00;97621.16;;;14.81;100.00
20987;BME280;10652;50.306;8.570;2022-10-22T04:02:03;97622.84;;;14.82;100.00
20987;BME280;10652;50.306;8.570;2022-10-22T04:06:07;97619.06;;;14.86;100.00
20987;BME280;10652;50.306;8.570;2022-10-22T04:10:10;97617.84;;;14.92;100.00
20987;BME280;10652;50.306;8.570;2022-10-22T04:14:12;97616.81;;;14.94;100.00
20987;BME280;10652;50.306;8.570;2022-10-22T04:18:14;97629.88;;;14.96;100.00
20987;BME280;10652;50.306;8.570;2022-10-22T04:22:16;97623.59;;;14.98;100.00
20987;BME280;10652;50.306;8.570;2022-10-22T04:26:19;97620.19;;;14.96;100.00
20987;BME280;10652;50.306;8.570;2022-10-22T04:30:21;97629.25;;;14.92;100.00
20987;BME280;10652;50.306;8.570;2022-10-22T04:34:26;97627.75;;;14.88;100.00
20987;BME280;10652;50.306;8.570;2022-10-22T04:38:28;97640.38;;;14.83;100.00
20987;BME280;10652;50.306;8.570;2022-10-22T04:42:30;97660.81;;;14.80;100.00
20987;BME280;10652;50.306;8.570;2022-10-22T04:46:33;97663.72;;;14.75;100.00
20987;BME280;10652;50.306;8.570;2022-10-22T04:50:36;97665.41;;;14.76;100.00
20987;BME280;10652;50.306;8.570;2022-10-22T04:54:39;97664.28;;;14.80;100.00
20987;BME280;10652;50.306;8.570;2022-10-22T04:58:42;97662.38;;;14.82;100.00
20987;BME280;10652;50.306;8.570;2022-10-22T05:02:48;97668.13;;;14.89;100.00
20987;BME280;10652;50.306;8.570;2022-10-22T05:06:50;97663.59;;;14.91;100.00
20987;BME280;10652;50.306;8.570;2022-10-22T05:10:53;97659.47;;;14.87;100.00
20987;BME280;10652;50.306;8.570;2022-10-22T05:14:55;97667.09;;;14.77;100.00
20987;BME280;10652;50.306;8.570;2022-10-22T05:18:58;97659.75;;;14.68;100.00
20987;BME280;10652;50.306;8.570;2022-10-22T05:23:01;97657.88;;;14.56;100.00
20987;BME280;10652;50.306;8.570;2022-10-22T05:27:03;97675.19;;;14.46;100.00
20987;BME280;10652;50.306;8.570;2022-10-22T05:31:07;97674.97;;;14.35;100.00
20987;BME280;10652;50.306;8.570;2022-10-22T05:35:09;97688.69;;;14.25;100.00
20987;BME280;10652;50.306;8.570;2022-10-22T05:39:11;97685.56;;;14.19;100.00
20987;BME280;10652;50.306;8.570;2022-10-22T05:43:13;97695.44;;;14.15;100.00
20987;BME280;10652;50.306;8.570;2022-10-22T05:47:15;97695.34;;;14.17;100.00
20987;BME280;10652;50.306;8.570;2022-10-22T05:51:18;97696.59;;;14.25;100.00
20987;BME280;10652;50.306;8.570;2022-10-22T05:55:21;97704.09;;;14.32;100.00
20987;BME280;10652;50.306;8.570;2022-10-22T05:59:23;97706.84;;;14.30;100.00
20987;BME280;10652;50.306;8.570;2022-10-22T06:03:25;97706.25;;;14.25;100.00
20987;BME280;10652;50.306;8.570;2022-10-22T06:07:27;97704.19;;;14.16;100.00
20987;BME280;10652;50.306;8.570;2022-10-22T06:11:29;97709.72;;;14.11;100.00
20987;BME280;10652;50.306;8.570;2022-10-22T06:15:36;97708.94;;;14.09;100.00
20987;BME280;10652;50.306;8.570;2022-10-22T06:19:38;97717.47;;;14.29;100.00
20987;BME280;10652;50.306;8.570;2022-10-22T06:23:40;97719.06;;;14.61;100.00
20987;BME280;10652;50.306;8.570;2022-10-22T06:27:43;97730.19;;;14.80;100.00
20987;BME280;10652;50.306;8.570;2022-10-22T06:31:49;97738.25;;;14.63;100.00
20987;BME280;10652;50.306;8.570;2022-10-22T06:35:52;97747.94;;;14.48;100.00
20987;BME280;10652;50.306;8.570;2022-10-22T06:39:54;97756.47;;;14.38;100.00
20987;BME280;10652;50.306;8.570;2022-10-22T06:43:56;97759.69;;;14.27;100.00
20987;BME280;10652;50.306;8.570;2022-10-22T06:47:59;97764.63;;;14.17;100.00
20987;BME280;10652;50.306;8.570;2022-10-22T06:52:01;97771.97;;;14.12;100.00
20987;BME280;10652;50.306;8.570;2022-10-22T06:56:07;97769.16;;;14.15;100.00
20987;BME280;10652;50.306;8.570;2022-10-22T07:00:10;97780.44;;;14.17;100.00
20987;BME280;10652;50.306;8.570;2022-10-22T07:04:12;97793.34;;;14.22;100.00
20987;BME280;10652;50.306;8.570;2022-10-22T07:08:14;97797.50;;;14.26;100.00
20987;BME280;10652;50.306;8.570;2022-10-22T07:12:16;97811.16;;;14.33;100.00
20987;BME280;10652;50.306;8.570;2022-10-22T07:16:18;97812.63;;;14.38;100.00
20987;BME280;10652;50.306;8.570;2022-10-22T07:20:20;97805.59;;;14.39;100.00
20987;BME280;10652;50.306;8.570;2022-10-22T07:24:22;97815.00;;;14.43;100.00
20987;BME280;10652;50.306;8.570;2022-10-22T07:28:24;97818.38;;;14.45;100.00
20987;BME280;10652;50.306;8.570;2022-10-22T07:32:26;97826.13;;;14.48;100.00
20987;BME280;10652;50.306;8.570;2022-10-22T07:36:29;97827.72;;;14.50;100.00
20987;BME280;10652;50.306;8.570;2022-10-22T07:40:31;97841.47;;;14.55;100.00
20987;BME280;10652;50.306;8.570;2022-10-22T07:44:34;97856.09;;;14.61;100.00
20987;BME280;10652;50.306;8.570;2022-10-22T07:48:36;97861.84;;;14.67;100.00
20987;BME280;10652;50.306;8.570;2022-10-22T07:52:38;97862.34;;;14.74;100.00
20987;BME280;10652;50.306;8.570;2022-10-22T07:56:41;97872.34;;;14.83;100.00
20987;BME280;10652;50.306;8.570;2022-10-22T08:00:43;97879.09;;;15.03;100.00
20987;BME280;10652;50.306;8.570;2022-10-22T08:04:45;97880.31;;;15.11;100.00
20987;BME280;10652;50.306;8.570;2022-10-22T08:08:47;97879.19;;;15.16;100.00
20987;BME280;10652;50.306;8.570;2022-10-22T08:12:50;97884.28;;;15.33;100.00
20987;BME280;10652;50.306;8.570;2022-10-22T08:16:52;97884.91;;;15.52;100.00
20987;BME280;10652;50.306;8.570;2022-10-22T08:20:54;97894.31;;;15.70;100.00
20987;BME280;10652;50.306;8.570;2022-10-22T08:24:57;97891.47;;;15.87;100.00
20987;BME280;10652;50.306;8.570;2022-10-22T08:28:59;97880.91;;;16.01;100.00
20987;BME280;10652;50.306;8.570;2022-10-22T08:33:02;97891.03;;;16.22;100.00
20987;BME280;10652;50.306;8.570;2022-10-22T08:37:04;97904.41;;;16.33;100.00
20987;BME280;10652;50.306;8.570;2022-10-22T08:41:14;97900.88;;;16.46;100.00
20987;BME280;10652;50.306;8.570;2022-10-22T08:49:29;97900.19;;;16.57;100.00
20987;BME280;10652;50.306;8.570;2022-10-22T08:58:13;97917.16;;;16.67;100.00
20987;BME280;10652;50.306;8.570;2022-10-22T09:06:52;97922.94;;;16.86;100.00
20987;BME280;10652;50.306;8.570;2022-10-22T09:11:05;97926.34;;;17.01;100.00
20987;BME280;10652;50.306;8.570;2022-10-22T09:15:15;97918.31;;;17.03;100.00
20987;BME280;10652;50.306;8.570;2022-10-22T09:19:27;97924.34;;;17.05;100.00
20987;BME280;10652;50.306;8.570;2022-10-22T09:23:37;97928.69;;;17.06;100.00
20987;BME280;10652;50.306;8.570;2022-10-22T09:27:42;97938.03;;;17.11;100.00
20987;BME280;10652;50.306;8.570;2022-10-22T09:31:44;97936.78;;;17.17;100.00
20987;BME280;10652;50.306;8.570;2022-10-22T09:35:59;97932.97;;;17.21;100.00
20987;BME280;10652;50.306;8.570;2022-10-22T09:40:04;97936.16;;;17.26;100.00
20987;BME280;10652;50.306;8.570;2022-10-22T09:44:06;97946.13;;;17.35;100.00
20987;BME280;10652;50.306;8.570;2022-10-22T09:52:25;97945.31;;;17.60;100.00
20987;BME280;10652;50.306;8.570;2022-10-22T09:56:35;97948.16;;;17.69;100.00
20987;BME280;10652;50.306;8.570;2022-10-22T10:00:38;97949.34;;;17.65;100.00
20987;BME280;10652;50.306;8.570;2022-10-22T10:08:49;97959.53;;;17.71;100.00
20987;BME280;10652;50.306;8.570;2022-10-22T10:12:56;97963.31;;;17.93;100.00
20987;BME280;10652;50.306;8.570;2022-10-22T10:17:21;97971.34;;;18.16;100.00
20987;BME280;10652;50.306;8.570;2022-10-22T10:26:09;97973.41;;;18.37;98.70
20987;BME280;10652;50.306;8.570;2022-10-22T10:30:17;97961.75;;;18.39;97.34
20987;BME280;10652;50.306;8.570;2022-10-22T10:34:41;97964.59;;;18.36;96.74
20987;BME280;10652;50.306;8.570;2022-10-22T10:38:57;97961.75;;;18.39;95.84
20987;BME280;10652;50.306;8.570;2022-10-22T10:43:24;97961.09;;;18.48;96.23
20987;BME280;10652;50.306;8.570;2022-10-22T11:00:49;97973.50;;;18.35;93.60
20987;BME280;10652;50.306;8.570;2022-10-22T11:09:24;97953.00;;;18.62;95.36
20987;BME280;10652;50.306;8.570;2022-10-22T11:13:42;97956.94;;;18.81;95.78
20987;BME280;10652;50.306;8.570;2022-10-22T11:17:47;97948.94;;;18.93;94.26
20987;BME280;10652;50.306;8.570;2022-10-22T11:22:08;97953.91;;;18.98;92.69
20987;BME280;10652;50.306;8.570;2022-10-22T11:26:23;97956.25;;;18.90;91.80
20987;BME280;10652;50.306;8.570;2022-10-22T11:30:32;97960.97;;;18.86;91.73
20987;BME280;10652;50.306;8.570;2022-10-22T11:34:43;97956.75;;;18.84;91.42
20987;BME280;10652;50.306;8.570;2022-10-22T11:38:46;97961.19;;;18.83;91.25
20987;BME280;10652;50.306;8.570;2022-10-22T11:42:55;97965.94;;;18.91;90.76
20987;BME280;10652;50.306;8.570;2022-10-22T11:47:08;97969.16;;;19.07;90.22
20987;BME280;10652;50.306;8.570;2022-10-22T11:51:37;97957.59;;;19.19;88.98
20987;BME280;10652;50.306;8.570;2022-10-22T11:59:57;97968.50;;;19.27;82.49
20987;BME280;10652;50.306;8.570;2022-10-22T12:04:18;97973.09;;;19.36;79.49
20987;BME280;10652;50.306;8.570;2022-10-22T12:08:24;97963.44;;;19.35;76.86
20987;BME280;10652;50.306;8.570;2022-10-22T12:12:26;97964.25;;;19.48;77.46
20987;BME280;10652;50.306;8.570;2022-10-22T12:16:39;97958.25;;;19.69;77.03
20987;BME280;10652;50.306;8.570;2022-10-22T12:20:58;97957.66;;;19.76;75.63
20987;BME280;10652;50.306;8.570;2022-10-22T12:25:05;97952.72;;;19.83;74.94
20987;BME280;10652;50.306;8.570;2022-10-22T12:29:12;97947.66;;;19.80;74.36
20987;BME280;10652;50.306;8.570;2022-10-22T12:33:18;97948.38;;;19.71;73.93
20987;BME280;10652;50.306;8.570;2022-10-22T12:37:21;97944.25;;;19.78;74.31
20987;BME280;10652;50.306;8.570;2022-10-22T12:41:32;97945.72;;;20.15;73.64
20987;BME280;10652;50.306;8.570;2022-10-22T12:45:35;97948.13;;;20.18;71.56
20987;BME280;10652;50.306;8.570;2022-10-22T12:49:41;97950.81;;;20.07;71.37
20987;BME280;10652;50.306;8.570;2022-10-22T12:53:47;97947.28;;;20.18;72.52
20987;BME280;10652;50.306;8.570;2022-10-22T12:57:50;97942.06;;;20.27;70.75
20987;BME280;10652;50.306;8.570;2022-10-22T13:01:53;97956.84;;;20.20;70.62
20987;BME280;10652;50.306;8.570;2022-10-22T13:05:55;97952.47;;;20.08;71.03
20987;BME280;10652;50.306;8.570;2022-10-22T13:09:58;97957.56;;;19.89;71.23
20987;BME280;10652;50.306;8.570;2022-10-22T13:14:03;97959.19;;;19.68;72.26
20987;BME280;10652;50.306;8.570;2022-10-22T13:18:25;97968.88;;;19.58;72.79
20987;BME280;10652;50.306;8.570;2022-10-22T13:22:39;97969.50;;;19.37;73.93
20987;BME280;10652;50.306;8.570;2022-10-22T13:26:42;97970.38;;;19.14;74.51
20987;BME280;10652;50.306;8.570;2022-10-22T13:30:53;97979.44;;;18.88;77.11
20987;BME280;10652;50.306;8.570;2022-10-22T13:35:00;97979.06;;;18.69;76.67
20987;BME280;10652;50.306;8.570;2022-10-22T13:39:03;97968.28;;;18.59;77.96
20987;BME280;10652;50.306;8.570;2022-10-22T13:43:07;97973.53;;;18.72;79.29
20987;BME280;10652;50.306;8.570;2022-10-22T13:47:28;97971.81;;;19.07;78.72
20987;BME280;10652;50.306;8.570;2022-10-22T13:51:32;97977.56;;;19.36;77.61
20987;BME280;10652;50.306;8.570;2022-10-22T13:55:38;97975.56;;;19.39;76.36
20987;BME280;10652;50.306;8.570;2022-10-22T13:59:40;97975.09;;;19.45;76.05
20987;BME280;10652;50.306;8.570;2022-10-22T14:03:42;97980.19;;;19.48;75.41
20987;BME280;10652;50.306;8.570;2022-10-22T14:07:44;97981.25;;;19.46;75.24
20987;BME280;10652;50.306;8.570;2022-10-22T14:11:46;97985.72;;;19.45;75.17
20987;BME280;10652;50.306;8.570;2022-10-22T14:15:50;97983.81;;;19.47;74.92
20987;BME280;10652;50.306;8.570;2022-10-22T14:19:53;97979.88;;;19.40;75.00
20987;BME280;10652;50.306;8.570;2022-10-22T14:23:55;97977.13;;;19.42;75.94
20987;BME280;10652;50.306;8.570;2022-10-22T14:27:57;97975.59;;;19.50;75.84
20987;BME280;10652;50.306;8.570;2022-10-22T14:31:59;97971.03;;;19.52;75.07
20987;BME280;10652;50.306;8.570;2022-10-22T14:36:01;97975.13;;;19.57;75.15
20987;BME280;10652;50.306;8.570;2022-10-22T14:40:04;97968.88;;;19.58;74.58
20987;BME280;10652;50.306;8.570;2022-10-22T14:44:06;97968.84;;;19.46;74.15
20987;BME280;10652;50.306;8.570;2022-10-22T14:48:13;97964.19;;;19.37;74.61
20987;BME280;10652;50.306;8.570;2022-10-22T14:52:16;97972.25;;;19.25;74.60
20987;BME280;10652;50.306;8.570;2022-10-22T14:56:19;97974.63;;;19.17;74.41
20987;BME280;10652;50.306;8.570;2022-10-22T15:00:24;97980.75;;;19.17;74.98
20987;BME280;10652;50.306;8.570;2022-10-22T15:04:26;97974.72;;;19.15;74.52
20987;BME280;10652;50.306;8.570;2022-10-22T15:08:29;97976.81;;;18.99;74.45
20987;BME280;10652;50.306;8.570;2022-10-22T15:12:32;97985.19;;;18.82;75.29
20987;BME280;10652;50.306;8.570;2022-10-22T15:16:34;97975.47;;;18.70;76.88
20987;BME280;10652;50.306;8.570;2022-10-22T15:20:36;97988.72;;;18.70;77.13
20987;BME280;10652;50.306;8.570;2022-10-22T15:24:39;97987.78;;;18.71;77.59
20987;BME280;10652;50.306;8.570;2022-10-22T15:28:41;97981.50;;;18.72;77.77
20987;BME280;10652;50.306;8.570;2022-10-22T15:32:44;97995.00;;;18.69;78.27
20987;BME280;10652;50.306;8.570;2022-10-22T15:36:46;97996.41;;;18.61;79.93
20987;BME280;10652;50.306;8.570;2022-10-22T15:40:48;97997.03;;;18.52;81.42
20987;BME280;10652;50.306;8.570;2022-10-22T15:44:56;98003.72;;;18.45;82.82
20987;BME280;10652;50.306;8.570;2022-10-22T15:48:59;97999.06;;;18.36;83.95
20987;BME280;10652;50.306;8.570;2022-10-22T15:53:01;98001.84;;;18.22;85.32
20987;BME280;10652;50.306;8.570;2022-10-22T15:57:02;97990.66;;;18.06;86.14
20987;BME280;10652;50.306;8.570;2022-10-22T16:01:11;98005.94;;;17.90;87.06
20987;BME280;10652;50.306;8.570;2022-10-22T16:05:14;98000.81;;;17.74;88.13
20987;BME280;10652;50.306;8.570;2022-10-22T16:09:18;98003.66;;;17.58;89.18
20987;BME280;10652;50.306;8.570;2022-10-22T16:13:21;97995.25;;;17.39;90.75
20987;BME280;10652;50.306;8.570;2022-10-22T16:17:25;98003.44;;;17.22;92.41
20987;BME280;10652;50.306;8.570;2022-10-22T16:21:27;97994.75;;;17.07;94.06
20987;BME280;10652;50.306;8.570;2022-10-22T16:25:29;98002.53;;;16.96;94.97
20987;BME280;10652;50.306;8.570;2022-10-22T16:29:31;98002.50;;;16.83;96.04
20987;BME280;10652;50.306;8.570;2022-10-22T16:33:35;98007.25;;;16.64;96.97
20987;BME280;10652;50.306;8.570;2022-10-22T16:37:47;98014.91;;;16.40;98.19
20987;BME280;10652;50.306;8.570;2022-10-22T16:41:49;98011.63;;;16.23;99.78
20987;BME280;10652;50.306;8.570;2022-10-22T16:45:51;98007.75;;;16.14;100.00
20987;BME280;10652;50.306;8.570;2022-10-22T16:49:53;98012.41;;;16.11;100.00
20987;BME280;10652;50.306;8.570;2022-10-22T16:53:56;98023.44;;;16.03;100.00
20987;BME280;10652;50.306;8.570;2022-10-22T16:57:58;98021.91;;;15.99;100.00
20987;BME280;10652;50.306;8.570;2022-10-22T17:02:00;98019.38;;;15.83;100.00
20987;BME280;10652;50.306;8.570;2022-10-22T17:06:03;98027.06;;;15.72;100.00
20987;BME280;10652;50.306;8.570;2022-10-22T17:10:06;98034.81;;;15.61;100.00
20987;BME280;10652;50.306;8.570;2022-10-22T17:14:09;98039.69;;;15.53;100.00
20987;BME280;10652;50.306;8.570;2022-10-22T17:18:12;98049.78;;;15.45;100.00
20987;BME280;10652;50.306;8.570;2022-10-22T17:22:14;98050.50;;;15.33;100.00
20987;BME280;10652;50.306;8.570;2022-10-22T17:26:20;98050.06;;;15.10;100.00
20987;BME280;10652;50.306;8.570;2022-10-22T17:30:23;98052.66;;;14.81;100.00
20987;BME280;10652;50.306;8.570;2022-10-22T17:34:28;98054.66;;;14.60;100.00
20987;BME280;10652;50.306;8.570;2022-10-22T17:38:33;98064.97;;;14.49;100.00
20987;BME280;10652;50.306;8.570;2022-10-22T17:42:36;98059.94;;;14.44;100.00
20987;BME280;10652;50.306;8.570;2022-10-22T17:46:38;98058.47;;;14.39;100.00
20987;BME280;10652;50.306;8.570;2022-10-22T17:50:41;98063.28;;;14.31;100.00
20987;BME280;10652;50.306;8.570;2022-10-22T17:54:48;98065.91;;;14.31;100.00
20987;BME280;10652;50.306;8.570;2022-10-22T17:58:51;98067.59;;;14.32;100.00
20987;BME280;10652;50.306;8.570;2022-10-22T18:02:53;98067.47;;;14.17;100.00
20987;BME280;10652;50.306;8.570;2022-10-22T18:06:55;98076.34;;;14.16;100.00
20987;BME280;10652;50.306;8.570;2022-10-22T18:10:58;98072.91;;;14.14;100.00
20987;BME280;10652;50.306;8.570;2022-10-22T18:15:00;98070.34;;;14.13;100.00
20987;BME280;10652;50.306;8.570;2022-10-22T18:19:02;98074.91;;;13.94;100.00
20987;BME280;10652;50.306;8.570;2022-10-22T18:23:05;98065.56;;;13.71;100.00
20987;BME280;10652;50.306;8.570;2022-10-22T18:27:07;98073.94;;;13.62;100.00
20987;BME280;10652;50.306;8.570;2022-10-22T18:31:12;98076.41;;;13.65;100.00
20987;BME280;10652;50.306;8.570;2022-10-22T18:35:14;98069.34;;;13.65;100.00
20987;BME280;10652;50.306;8.570;2022-10-22T18:39:16;98067.47;;;13.67;100.00
20987;BME280;10652;50.306;8.570;2022-10-22T18:43:18;98069.75;;;13.75;100.00
20987;BME280;10652;50.306;8.570;2022-10-22T18:47:21;98067.50;;;13.85;100.00
20987;BME280;10652;50.306;8.570;2022-10-22T18:51:26;98070.81;;;13.88;100.00
20987;BME280;10652;50.306;8.570;2022-10-22T18:55:32;98059.44;;;13.88;100.00
20987;BME280;10652;50.306;8.570;2022-10-22T18:59:35;98060.59;;;13.82;100.00
20987;BME280;10652;50.306;8.570;2022-10-22T19:03:38;98062.47;;;13.80;100.00
20987;BME280;10652;50.306;8.570;2022-10-22T19:07:40;98067.78;;;13.78;100.00
20987;BME280;10652;50.306;8.570;2022-10-22T19:11:43;98064.47;;;13.75;100.00
20987;BME280;10652;50.306;8.570;2022-10-22T19:15:45;98063.84;;;13.70;100.00
20987;BME280;10652;50.306;8.570;2022-10-22T19:19:47;98062.44;;;13.63;100.00
20987;BME280;10652;50.306;8.570;2022-10-22T19:23:49;98062.63;;;13.60;100.00
20987;BME280;10652;50.306;8.570;2022-10-22T19:27:52;98052.16;;;13.58;100.00
20987;BME280;10652;50.306;8.570;2022-10-22T19:31:54;98062.69;;;13.58;100.00
20987;BME280;10652;50.306;8.570;2022-10-22T19:35:56;98061.13;;;13.54;100.00
20987;BME280;10652;50.306;8.570;2022-10-22T19:39:58;98070.00;;;13.53;100.00
20987;BME280;10652;50.306;8.570;2022-10-22T19:44:00;98064.00;;;13.50;100.00
20987;BME280;10652;50.306;8.570;2022-10-22T19:48:02;98060.63;;;13.48;100.00
20987;BME280;10652;50.306;8.570;2022-10-22T19:52:04;98068.41;;;13.49;100.00
20987;BME280;10652;50.306;8.570;2022-10-22T19:56:09;98071.84;;;13.51;100.00
20987;BME280;10652;50.306;8.570;2022-10-22T20:00:11;98069.28;;;13.50;100.00
20987;BME280;10652;50.306;8.570;2022-10-22T20:04:16;98072.84;;;13.49;100.00
20987;BME280;10652;50.306;8.570;2022-10-22T20:08:19;98065.88;;;13.48;100.00
20987;BME280;10652;50.306;8.570;2022-10-22T20:12:21;98063.25;;;13.48;100.00
20987;BME280;10652;50.306;8.570;2022-10-22T20:16:25;98063.16;;;13.49;100.00
20987;BME280;10652;50.306;8.570;2022-10-22T20:20:29;98063.25;;;13.48;100.00
20987;BME280;10652;50.306;8.570;2022-10-22T20:24:31;98072.84;;;13.49;100.00
20987;BME280;10652;50.306;8.570;2022-10-22T20:28:33;98072.00;;;13.48;100.00
20987;BME280;10652;50.306;8.570;2022-10-22T20:32:36;98082.44;;;13.67;100.00
20987;BME280;10652;50.306;8.570;2022-10-22T20:36:39;98075.84;;;13.75;100.00
20987;BME280;10652;50.306;8.570;2022-10-22T20:40:41;98082.72;;;13.78;100.00
20987;BME280;10652;50.306;8.570;2022-10-22T20:44:43;98084.59;;;13.76;100.00
20987;BME280;10652;50.306;8.570;2022-10-22T20:48:45;98086.28;;;13.77;100.00
20987;BME280;10652;50.306;8.570;2022-10-22T20:52:47;98088.78;;;13.80;100.00
20987;BME280;10652;50.306;8.570;2022-10-22T20:56:49;98091.31;;;13.81;100.00
20987;BME280;10652;50.306;8.570;2022-10-22T21:00:51;98080.09;;;13.78;100.00
20987;BME280;10652;50.306;8.570;2022-10-22T21:04:55;98073.06;;;13.78;100.00
20987;BME280;10652;50.306;8.570;2022-10-22T21:08:57;98073.75;;;13.82;100.00
20987;BME280;10652;50.306;8.570;2022-10-22T21:12:59;98070.13;;;13.85;100.00
20987;BME280;10652;50.306;8.570;2022-10-22T21:17:01;98062.91;;;13.88;100.00
20987;BME280;10652;50.306;8.570;2022-10-22T21:21:04;98059.44;;;13.88;100.00
20987;BME280;10652;50.306;8.570;2022-10-22T21:25:07;98064.69;;;13.88;100.00
20987;BME280;10652;50.306;8.570;2022-10-22T21:29:11;98052.63;;;13.84;100.00
20987;BME280;10652;50.306;8.570;2022-10-22T21:33:13;98053.78;;;13.78;100.00
20987;BME280;10652;50.306;8.570;2022-10-22T21:37:15;98048.81;;;13.72;100.00
20987;BME280;10652;50.306;8.570;2022-10-22T21:41:19;98059.53;;;13.69;100.00
20987;BME280;10652;50.306;8.570;2022-10-22T21:45:21;98057.13;;;13.64;100.00
20987;BME280;10652;50.306;8.570;2022-10-22T21:49:23;98057.34;;;13.60;100.00
20987;BME280;10652;50.306;8.570;2022-10-22T21:53:25;98060.00;;;13.60;100.00
20987;BME280;10652;50.306;8.570;2022-10-22T21:57:27;98058.63;;;13.53;100.00
20987;BME280;10652;50.306;8.570;2022-10-22T22:01:30;98075.47;;;13.49;100.00
20987;BME280;10652;50.306;8.570;2022-10-22T22:05:32;98085.06;;;13.50;100.00
20987;BME280;10652;50.306;8.570;2022-10-22T22:09:35;98077.50;;;13.44;100.00
20987;BME280;10652;50.306;8.570;2022-10-22T22:13:37;98079.94;;;13.29;100.00
20987;BME280;10652;50.306;8.570;2022-10-22T22:17:39;98086.34;;;13.24;100.00